sensor_id;sensor_type;location;lat;lon;timestamp;P1;durP1;ratioP1;P2;durP2;ratioP2
23169;SDS011;11753;43.144;24.714;2023-06-14T00:01:00;11.68;;;8.20;;
23169;SDS011;11753;43.144;24.714;2023-06-14T00:02:03;14.70;;;10.60;;
23169;SDS011;11753;43.144;24.714;2023-06-14T00:03:04;12.13;;;8.70;;
23169;SDS011;11753;43.144;24.714;2023-06-14T00:04:05;10.23;;;8.35;;
23169;SDS011;11753;43.144;24.714;2023-06-14T00:05:09;11.10;;;8.50;;
23169;SDS011;11753;43.144;24.714;2023-06-14T00:06:12;12.27;;;9.23;;
23169;SDS011;11753;43.144;24.714;2023-06-14T00:07:13;10.65;;;9.18;;
23169;SDS011;11753;43.144;24.714;2023-06-14T00:08:17;15.80;;;9.90;;
23169;SDS011;11753;43.144;24.714;2023-06-14T00:09:19;16.25;;;9.55;;
23169;SDS011;11753;43.144;24.714;2023-06-14T00:10:20;13.68;;;10.75;;
23169;SDS011;11753;43.144;24.714;2023-06-14T00:11:21;13.57;;;10.02;;
23169;SDS011;11753;43.144;24.714;2023-06-14T00:12:22;12.43;;;9.30;;
23169;SDS011;11753;43.144;24.714;2023-06-14T00:13:24;16.08;;;10.77;;
23169;SDS011;11753;43.144;24.714;2023-06-14T00:14:25;15.95;;;10.60;;
23169;SDS011;11753;43.144;24.714;2023-06-14T00:15:26;16.70;;;10.40;;
23169;SDS011;11753;43.144;24.714;2023-06-14T00:16:28;12.93;;;9.82;;
23169;SDS011;11753;43.144;24.714;2023-06-14T00:17:29;14.77;;;10.85;;
23169;SDS011;11753;43.144;24.714;2023-06-14T00:18:30;15.02;;;11.18;;
23169;SDS011;11753;43.144;24.714;2023-06-14T00:19:31;12.82;;;10.13;;
23169;SDS011;11753;43.144;24.714;2023-06-14T00:20:34;13.73;;;9.70;;
23169;SDS011;11753;43.144;24.714;2023-06-14T00:21:36;11.88;;;9.45;;
23169;SDS011;11753;43.144;24.714;2023-06-14T00:22:38;12.38;;;9.52;;
23169;SDS011;11753;43.144;24.714;2023-06-14T00:23:39;13.07;;;10.20;;
23169;SDS011;11753;43.144;24.714;2023-06-14T00:24:40;16.13;;;11.75;;
23169;SDS011;11753;43.144;24.714;2023-06-14T00:25:40;13.50;;;10.10;;
23169;SDS011;11753;43.144;24.714;2023-06-14T00:26:41;11.02;;;8.88;;
23169;SDS011;11753;43.144;24.714;2023-06-14T00:27:43;14.07;;;9.90;;
23169;SDS011;11753;43.144;24.714;2023-06-14T00:28:44;12.60;;;9.63;;
23169;SDS011;11753;43.144;24.714;2023-06-14T00:29:45;12.88;;;9.75;;
23169;SDS011;11753;43.144;24.714;2023-06-14T00:30:46;11.40;;;9.25;;
23169;SDS011;11753;43.144;24.714;2023-06-14T00:31:47;12.00;;;8.93;;
23169;SDS011;11753;43.144;24.714;2023-06-14T00:32:48;11.68;;;9.20;;
23169;SDS011;11753;43.144;24.714;2023-06-14T00:33:48;13.85;;;9.63;;
23169;SDS011;11753;43.144;24.714;2023-06-14T00:34:49;12.48;;;8.77;;
23169;SDS011;11753;43.144;24.714;2023-06-14T00:35:50;12.00;;;9.48;;
23169;SDS011;11753;43.144;24.714;2023-06-14T00:36:54;14.23;;;10.00;;
23169;SDS011;11753;43.144;24.714;2023-06-14T00:37:55;13.13;;;9.30;;
23169;SDS011;11753;43.144;24.714;2023-06-14T00:38:56;11.70;;;8.75;;
23169;SDS011;11753;43.144;24.714;2023-06-14T00:39:57;11.63;;;8.85;;
23169;SDS011;11753;43.144;24.714;2023-06-14T00:40:58;14.55;;;8.90;;
23169;SDS011;11753;43.144;24.714;2023-06-14T00:41:59;12.65;;;8.80;;
23169;SDS011;11753;43.144;24.714;2023-06-14T00:43:00;11.68;;;8.88;;
23169;SDS011;11753;43.144;24.714;2023-06-14T00:44:01;12.98;;;8.82;;
23169;SDS011;11753;43.144;24.714;2023-06-14T00:45:02;12.52;;;8.98;;
23169;SDS011;11753;43.144;24.714;2023-06-14T00:46:03;13.75;;;9.75;;
23169;SDS011;11753;43.144;24.714;2023-06-14T00:47:04;11.80;;;9.05;;
23169;SDS011;11753;43.144;24.714;2023-06-14T00:48:05;10.55;;;8.32;;
23169;SDS011;11753;43.144;24.714;2023-06-14T00:49:07;12.85;;;8.52;;
23169;SDS011;11753;43.144;24.714;2023-06-14T00:50:09;11.63;;;8.82;;
23169;SDS011;11753;43.144;24.714;2023-06-14T00:51:11;11.45;;;8.20;;
23169;SDS011;11753;43.144;24.714;2023-06-14T00:52:13;12.27;;;8.60;;
23169;SDS011;11753;43.144;24.714;2023-06-14T00:53:15;9.88;;;7.50;;
23169;SDS011;11753;43.144;24.714;2023-06-14T00:54:20;12.90;;;9.45;;
23169;SDS011;11753;43.144;24.714;2023-06-14T00:55:21;10.93;;;8.93;;
23169;SDS011;11753;43.144;24.714;2023-06-14T00:56:22;10.88;;;8.15;;
23169;SDS011;11753;43.144;24.714;2023-06-14T00:57:23;13.40;;;8.20;;
23169;SDS011;11753;43.144;24.714;2023-06-14T00:58:25;11.27;;;8.50;;
23169;SDS011;11753;43.144;24.714;2023-06-14T00:59:26;10.77;;;7.40;;
23169;SDS011;11753;43.144;24.714;2023-06-14T01:00:27;9.98;;;7.40;;
23169;SDS011;11753;43.144;24.714;2023-06-14T01:01:29;12.27;;;8.07;;
23169;SDS011;11753;43.144;24.714;2023-06-14T01:02:33;11.80;;;7.30;;
23169;SDS011;11753;43.144;24.714;2023-06-14T01:03:34;9.27;;;7.35;;
23169;SDS011;11753;43.144;24.714;2023-06-14T01:04:35;11.40;;;7.72;;
23169;SDS011;11753;43.144;24.714;2023-06-14T01:05:36;9.88;;;7.05;;
23169;SDS011;11753;43.144;24.714;2023-06-14T01:08:01;8.27;;;6.70;;
23169;SDS011;11753;43.144;24.714;2023-06-14T01:14:52;14.15;;;8.18;;
23169;SDS011;11753;43.144;24.714;2023-06-14T01:15:55;11.63;;;7.95;;
23169;SDS011;11753;43.144;24.714;2023-06-14T01:16:56;10.95;;;7.35;;
23169;SDS011;11753;43.144;24.714;2023-06-14T01:18:00;8.35;;;6.75;;
23169;SDS011;11753;43.144;24.714;2023-06-14T01:19:05;10.05;;;6.53;;
23169;SDS011;11753;43.144;24.714;2023-06-14T01:20:12;9.57;;;6.25;;
23169;SDS011;11753;43.144;24.714;2023-06-14T01:21:25;8.45;;;6.57;;
23169;SDS011;11753;43.144;24.714;2023-06-14T01:22:28;7.82;;;5.88;;
23169;SDS011;11753;43.144;24.714;2023-06-14T01:23:29;7.25;;;5.82;;
23169;SDS011;11753;43.144;24.714;2023-06-14T01:24:32;8.15;;;5.50;;
23169;SDS011;11753;43.144;24.714;2023-06-14T01:25:35;9.45;;;6.80;;
23169;SDS011;11753;43.144;24.714;2023-06-14T01:26:36;8.93;;;6.20;;
23169;SDS011;11753;43.144;24.714;2023-06-14T01:27:38;7.65;;;5.60;;
23169;SDS011;11753;43.144;24.714;2023-06-14T01:28:39;9.25;;;5.82;;
23169;SDS011;11753;43.144;24.714;2023-06-14T01:29:40;9.50;;;6.32;;
23169;SDS011;11753;43.144;24.714;2023-06-14T01:30:47;7.38;;;5.85;;
23169;SDS011;11753;43.144;24.714;2023-06-14T01:31:56;7.57;;;6.05;;
23169;SDS011;11753;43.144;24.714;2023-06-14T01:32:57;7.35;;;5.65;;
23169;SDS011;11753;43.144;24.714;2023-06-14T01:33:58;7.47;;;5.88;;
23169;SDS011;11753;43.144;24.714;2023-06-14T01:34:59;14.00;;;6.75;;
23169;SDS011;11753;43.144;24.714;2023-06-14T01:35:59;9.18;;;6.20;;
23169;SDS011;11753;43.144;24.714;2023-06-14T01:37:02;12.20;;;6.70;;
23169;SDS011;11753;43.144;24.714;2023-06-14T01:38:03;8.77;;;6.50;;
23169;SDS011;11753;43.144;24.714;2023-06-14T01:39:06;10.07;;;6.68;;
23169;SDS011;11753;43.144;24.714;2023-06-14T01:40:08;7.78;;;5.70;;
23169;SDS011;11753;43.144;24.714;2023-06-14T01:41:12;12.27;;;7.60;;
23169;SDS011;11753;43.144;24.714;2023-06-14T01:42:15;13.73;;;8.45;;
23169;SDS011;11753;43.144;24.714;2023-06-14T01:43:17;8.23;;;6.60;;
23169;SDS011;11753;43.144;24.714;2023-06-14T01:44:19;9.52;;;6.70;;
23169;SDS011;11753;43.144;24.714;2023-06-14T01:45:20;12.43;;;7.10;;
23169;SDS011;11753;43.144;24.714;2023-06-14T01:46:23;9.93;;;7.65;;
23169;SDS011;11753;43.144;24.714;2023-06-14T01:47:24;9.85;;;7.05;;
23169;SDS011;11753;43.144;24.714;2023-06-14T01:48:25;11.07;;;7.10;;
23169;SDS011;11753;43.144;24.714;2023-06-14T01:49:27;10.00;;;6.32;;
23169;SDS011;11753;43.144;24.714;2023-06-14T01:50:28;8.73;;;5.95;;
23169;SDS011;11753;43.144;24.714;2023-06-14T01:51:30;9.02;;;6.40;;
23169;SDS011;11753;43.144;24.714;2023-06-14T01:52:31;9.20;;;6.55;;
23169;SDS011;11753;43.144;24.714;2023-06-14T01:53:32;10.27;;;7.25;;
23169;SDS011;11753;43.144;24.714;2023-06-14T01:54:33;10.93;;;7.28;;
23169;SDS011;11753;43.144;24.714;2023-06-14T01:55:34;9.52;;;6.80;;
23169;SDS011;11753;43.144;24.714;2023-06-14T01:56:37;9.85;;;6.93;;
23169;SDS011;11753;43.144;24.714;2023-06-14T01:57:38;8.60;;;6.65;;
23169;SDS011;11753;43.144;24.714;2023-06-14T01:58:39;9.82;;;6.30;;
23169;SDS011;11753;43.144;24.714;2023-06-14T01:59:40;12.95;;;6.70;;
23169;SDS011;11753;43.144;24.714;2023-06-14T02:00:41;10.80;;;7.07;;
23169;SDS011;11753;43.144;24.714;2023-06-14T02:01:43;10.05;;;7.60;;
23169;SDS011;11753;43.144;24.714;2023-06-14T02:02:45;9.23;;;7.15;;
23169;SDS011;11753;43.144;24.714;2023-06-14T02:03:46;12.32;;;7.57;;
23169;SDS011;11753;43.144;24.714;2023-06-14T02:04:46;8.43;;;6.45;;
23169;SDS011;11753;43.144;24.714;2023-06-14T02:05:47;10.00;;;7.28;;
23169;SDS011;11753;43.144;24.714;2023-06-14T02:06:48;11.82;;;6.55;;
23169;SDS011;11753;43.144;24.714;2023-06-14T02:07:48;10.90;;;6.70;;
23169;SDS011;11753;43.144;24.714;2023-06-14T02:08:50;8.52;;;6.85;;
23169;SDS011;11753;43.144;24.714;2023-06-14T02:09:51;9.73;;;5.85;;
23169;SDS011;11753;43.144;24.714;2023-06-14T02:10:52;10.55;;;6.75;;
23169;SDS011;11753;43.144;24.714;2023-06-14T02:11:53;9.90;;;6.90;;
23169;SDS011;11753;43.144;24.714;2023-06-14T02:12:54;7.18;;;6.20;;
23169;SDS011;11753;43.144;24.714;2023-06-14T02:13:55;8.35;;;5.88;;
23169;SDS011;11753;43.144;24.714;2023-06-14T02:14:56;10.68;;;6.03;;
23169;SDS011;11753;43.144;24.714;2023-06-14T02:15:58;10.02;;;6.32;;
23169;SDS011;11753;43.144;24.714;2023-06-14T02:17:00;9.70;;;5.93;;
23169;SDS011;11753;43.144;24.714;2023-06-14T02:18:01;9.55;;;6.18;;
23169;SDS011;11753;43.144;24.714;2023-06-14T02:19:03;11.68;;;6.30;;
23169;SDS011;11753;43.144;24.714;2023-06-14T02:20:04;9.27;;;5.80;;
23169;SDS011;11753;43.144;24.714;2023-06-14T02:21:06;10.48;;;6.32;;
23169;SDS011;11753;43.144;24.714;2023-06-14T02:22:07;10.40;;;5.43;;
23169;SDS011;11753;43.144;24.714;2023-06-14T02:23:08;12.45;;;5.68;;
23169;SDS011;11753;43.144;24.714;2023-06-14T02:24:09;11.35;;;5.50;;
23169;SDS011;11753;43.144;24.714;2023-06-14T02:25:10;9.25;;;5.50;;
23169;SDS011;11753;43.144;24.714;2023-06-14T02:26:13;7.65;;;5.53;;
23169;SDS011;11753;43.144;24.714;2023-06-14T02:27:14;7.55;;;5.57;;
23169;SDS011;11753;43.144;24.714;2023-06-14T02:28:15;6.53;;;5.25;;
23169;SDS011;11753;43.144;24.714;2023-06-14T02:29:16;11.50;;;4.97;;
23169;SDS011;11753;43.144;24.714;2023-06-14T02:30:17;6.50;;;4.20;;
23169;SDS011;11753;43.144;24.714;2023-06-14T02:31:18;7.10;;;4.63;;
23169;SDS011;11753;43.144;24.714;2023-06-14T02:32:19;7.57;;;4.10;;
23169;SDS011;11753;43.144;24.714;2023-06-14T02:33:20;6.63;;;4.47;;
23169;SDS011;11753;43.144;24.714;2023-06-14T02:34:22;5.78;;;4.03;;
23169;SDS011;11753;43.144;24.714;2023-06-14T02:35:23;5.80;;;4.28;;
23169;SDS011;11753;43.144;24.714;2023-06-14T02:36:26;4.60;;;3.45;;
23169;SDS011;11753;43.144;24.714;2023-06-14T02:37:29;5.55;;;3.60;;
23169;SDS011;11753;43.144;24.714;2023-06-14T02:38:31;6.25;;;4.07;;
23169;SDS011;11753;43.144;24.714;2023-06-14T02:39:32;4.75;;;3.50;;
23169;SDS011;11753;43.144;24.714;2023-06-14T02:40:33;5.10;;;3.58;;
23169;SDS011;11753;43.144;24.714;2023-06-14T02:41:34;6.10;;;3.65;;
23169;SDS011;11753;43.144;24.714;2023-06-14T02:42:35;4.80;;;3.45;;
23169;SDS011;11753;43.144;24.714;2023-06-14T02:43:36;6.50;;;3.92;;
23169;SDS011;11753;43.144;24.714;2023-06-14T02:44:38;7.07;;;3.55;;
23169;SDS011;11753;43.144;24.714;2023-06-14T02:45:39;6.65;;;4.10;;
23169;SDS011;11753;43.144;24.714;2023-06-14T02:46:40;5.60;;;3.80;;
23169;SDS011;11753;43.144;24.714;2023-06-14T02:47:44;5.68;;;4.18;;
23169;SDS011;11753;43.144;24.714;2023-06-14T02:48:46;5.32;;;3.88;;
23169;SDS011;11753;43.144;24.714;2023-06-14T02:49:47;5.85;;;3.95;;
23169;SDS011;11753;43.144;24.714;2023-06-14T02:50:48;6.68;;;4.07;;
23169;SDS011;11753;43.144;24.714;2023-06-14T02:51:49;4.53;;;3.63;;
23169;SDS011;11753;43.144;24.714;2023-06-14T02:52:49;6.28;;;4.00;;
23169;SDS011;11753;43.144;24.714;2023-06-14T02:53:50;6.00;;;3.95;;
23169;SDS011;11753;43.144;24.714;2023-06-14T02:54:51;5.45;;;4.07;;
23169;SDS011;11753;43.144;24.714;2023-06-14T02:55:52;6.20;;;3.90;;
23169;SDS011;11753;43.144;24.714;2023-06-14T02:56:55;6.18;;;3.90;;
23169;SDS011;11753;43.144;24.714;2023-06-14T02:57:56;5.57;;;3.92;;
23169;SDS011;11753;43.144;24.714;2023-06-14T02:58:57;6.28;;;3.80;;
23169;SDS011;11753;43.144;24.714;2023-06-14T02:59:59;5.97;;;4.05;;
23169;SDS011;11753;43.144;24.714;2023-06-14T03:01:00;6.85;;;4.30;;
23169;SDS011;11753;43.144;24.714;2023-06-14T03:02:03;5.43;;;3.78;;
23169;SDS011;11753;43.144;24.714;2023-06-14T03:03:04;5.22;;;3.42;;
23169;SDS011;11753;43.144;24.714;2023-06-14T03:04:10;4.63;;;3.53;;
23169;SDS011;11753;43.144;24.714;2023-06-14T03:05:11;6.07;;;3.53;;
23169;SDS011;11753;43.144;24.714;2023-06-14T03:06:13;5.55;;;3.72;;
23169;SDS011;11753;43.144;24.714;2023-06-14T03:07:17;8.05;;;3.85;;
23169;SDS011;11753;43.144;24.714;2023-06-14T03:08:20;4.55;;;3.45;;
23169;SDS011;11753;43.144;24.714;2023-06-14T03:09:21;6.95;;;3.38;;
23169;SDS011;11753;43.144;24.714;2023-06-14T03:10:22;5.85;;;3.38;;
23169;SDS011;11753;43.144;24.714;2023-06-14T03:11:23;4.20;;;3.17;;
23169;SDS011;11753;43.144;24.714;2023-06-14T03:12:24;4.05;;;3.13;;
23169;SDS011;11753;43.144;24.714;2023-06-14T03:13:25;5.53;;;3.72;;
23169;SDS011;11753;43.144;24.714;2023-06-14T03:14:27;4.10;;;3.22;;
23169;SDS011;11753;43.144;24.714;2023-06-14T03:15:29;6.15;;;3.53;;
23169;SDS011;11753;43.144;24.714;2023-06-14T03:16:32;4.97;;;3.47;;
23169;SDS011;11753;43.144;24.714;2023-06-14T03:17:35;5.53;;;3.30;;
23169;SDS011;11753;43.144;24.714;2023-06-14T03:18:39;4.65;;;3.10;;
23169;SDS011;11753;43.144;24.714;2023-06-14T03:19:40;5.47;;;2.88;;
23169;SDS011;11753;43.144;24.714;2023-06-14T03:20:42;4.85;;;3.25;;
23169;SDS011;11753;43.144;24.714;2023-06-14T03:21:43;5.78;;;3.35;;
23169;SDS011;11753;43.144;24.714;2023-06-14T03:22:45;7.50;;;3.63;;
23169;SDS011;11753;43.144;24.714;2023-06-14T03:23:47;7.90;;;3.42;;
23169;SDS011;11753;43.144;24.714;2023-06-14T03:24:49;5.20;;;2.80;;
23169;SDS011;11753;43.144;24.714;2023-06-14T03:25:50;3.88;;;2.97;;
23169;SDS011;11753;43.144;24.714;2023-06-14T03:26:52;4.20;;;3.10;;
23169;SDS011;11753;43.144;24.714;2023-06-14T03:27:56;4.45;;;3.13;;
23169;SDS011;11753;43.144;24.714;2023-06-14T03:28:57;4.57;;;3.40;;
23169;SDS011;11753;43.144;24.714;2023-06-14T03:29:58;6.05;;;3.53;;
23169;SDS011;11753;43.144;24.714;2023-06-14T03:30:59;4.65;;;2.90;;
23169;SDS011;11753;43.144;24.714;2023-06-14T03:32:01;4.55;;;2.78;;
23169;SDS011;11753;43.144;24.714;2023-06-14T03:33:03;3.95;;;3.15;;
23169;SDS011;11753;43.144;24.714;2023-06-14T03:34:05;4.72;;;3.33;;
23169;SDS011;11753;43.144;24.714;2023-06-14T03:35:06;4.20;;;2.33;;
23169;SDS011;11753;43.144;24.714;2023-06-14T03:36:07;3.72;;;2.90;;
23169;SDS011;11753;43.144;24.714;2023-06-14T03:37:08;4.47;;;2.72;;
23169;SDS011;11753;43.144;24.714;2023-06-14T03:38:09;6.50;;;2.83;;
23169;SDS011;11753;43.144;24.714;2023-06-14T03:39:10;4.65;;;3.00;;
23169;SDS011;11753;43.144;24.714;2023-06-14T03:40:12;4.15;;;2.72;;
23169;SDS011;11753;43.144;24.714;2023-06-14T03:41:14;4.70;;;2.83;;
23169;SDS011;11753;43.144;24.714;2023-06-14T03:42:15;5.65;;;2.88;;
23169;SDS011;11753;43.144;24.714;2023-06-14T03:43:16;3.88;;;2.58;;
23169;SDS011;11753;43.144;24.714;2023-06-14T03:44:17;3.88;;;2.65;;
23169;SDS011;11753;43.144;24.714;2023-06-14T03:45:19;4.43;;;3.03;;
23169;SDS011;11753;43.144;24.714;2023-06-14T03:46:20;4.15;;;2.80;;
23169;SDS011;11753;43.144;24.714;2023-06-14T03:47:21;4.10;;;2.55;;
23169;SDS011;11753;43.144;24.714;2023-06-14T03:48:21;4.57;;;2.67;;
23169;SDS011;11753;43.144;24.714;2023-06-14T03:49:23;3.42;;;2.50;;
23169;SDS011;11753;43.144;24.714;2023-06-14T03:50:24;5.63;;;2.80;;
23169;SDS011;11753;43.144;24.714;2023-06-14T03:51:25;7.35;;;3.03;;
23169;SDS011;11753;43.144;24.714;2023-06-14T03:52:30;5.90;;;3.38;;
23169;SDS011;11753;43.144;24.714;2023-06-14T03:53:31;3.25;;;2.22;;
23169;SDS011;11753;43.144;24.714;2023-06-14T03:54:32;4.72;;;3.03;;
23169;SDS011;11753;43.144;24.714;2023-06-14T03:55:33;5.43;;;2.80;;
23169;SDS011;11753;43.144;24.714;2023-06-14T03:56:34;5.80;;;3.03;;
23169;SDS011;11753;43.144;24.714;2023-06-14T03:57:36;4.68;;;2.58;;
23169;SDS011;11753;43.144;24.714;2023-06-14T03:58:37;7.15;;;2.75;;
23169;SDS011;11753;43.144;24.714;2023-06-14T03:59:38;5.57;;;2.90;;
23169;SDS011;11753;43.144;24.714;2023-06-14T04:00:39;4.00;;;2.72;;
23169;SDS011;11753;43.144;24.714;2023-06-14T04:01:40;4.80;;;2.97;;
23169;SDS011;11753;43.144;24.714;2023-06-14T04:02:46;4.13;;;3.05;;
23169;SDS011;11753;43.144;24.714;2023-06-14T04:03:47;3.55;;;2.60;;
23169;SDS011;11753;43.144;24.714;2023-06-14T04:04:49;5.32;;;2.88;;
23169;SDS011;11753;43.144;24.714;2023-06-14T04:05:51;4.07;;;2.97;;
23169;SDS011;11753;43.144;24.714;2023-06-14T04:06:57;4.65;;;2.97;;
23169;SDS011;11753;43.144;24.714;2023-06-14T04:08:01;4.60;;;3.15;;
23169;SDS011;11753;43.144;24.714;2023-06-14T04:09:02;4.85;;;3.20;;
23169;SDS011;11753;43.144;24.714;2023-06-14T04:10:03;5.05;;;3.20;;
23169;SDS011;11753;43.144;24.714;2023-06-14T04:11:04;4.75;;;2.83;;
23169;SDS011;11753;43.144;24.714;2023-06-14T04:12:06;3.72;;;2.58;;
23169;SDS011;11753;43.144;24.714;2023-06-14T04:13:12;4.03;;;2.90;;
23169;SDS011;11753;43.144;24.714;2023-06-14T04:14:13;7.10;;;3.00;;
23169;SDS011;11753;43.144;24.714;2023-06-14T04:15:14;4.13;;;2.83;;
23169;SDS011;11753;43.144;24.714;2023-06-14T04:16:15;4.03;;;3.05;;
23169;SDS011;11753;43.144;24.714;2023-06-14T04:17:16;4.07;;;3.08;;
23169;SDS011;11753;43.144;24.714;2023-06-14T04:18:17;4.25;;;3.30;;
23169;SDS011;11753;43.144;24.714;2023-06-14T04:19:20;4.18;;;3.50;;
23169;SDS011;11753;43.144;24.714;2023-06-14T04:20:20;6.43;;;3.90;;
23169;SDS011;11753;43.144;24.714;2023-06-14T04:21:30;4.10;;;3.70;;
23169;SDS011;11753;43.144;24.714;2023-06-14T04:22:31;4.32;;;3.30;;
23169;SDS011;11753;43.144;24.714;2023-06-14T04:23:33;3.72;;;3.05;;
23169;SDS011;11753;43.144;24.714;2023-06-14T04:24:34;4.85;;;3.10;;
23169;SDS011;11753;43.144;24.714;2023-06-14T04:25:35;4.70;;;3.20;;
23169;SDS011;11753;43.144;24.714;2023-06-14T04:26:36;4.22;;;2.55;;
23169;SDS011;11753;43.144;24.714;2023-06-14T04:27:37;4.53;;;2.97;;
23169;SDS011;11753;43.144;24.714;2023-06-14T04:28:38;4.30;;;3.00;;
23169;SDS011;11753;43.144;24.714;2023-06-14T04:29:40;4.15;;;3.00;;
23169;SDS011;11753;43.144;24.714;2023-06-14T04:30:44;3.22;;;2.35;;
23169;SDS011;11753;43.144;24.714;2023-06-14T04:31:47;4.43;;;3.20;;
23169;SDS011;11753;43.144;24.714;2023-06-14T04:32:49;4.72;;;3.05;;
23169;SDS011;11753;43.144;24.714;2023-06-14T04:33:55;5.85;;;2.92;;
23169;SDS011;11753;43.144;24.714;2023-06-14T04:34:56;4.18;;;3.05;;
23169;SDS011;11753;43.144;24.714;2023-06-14T04:35:57;3.80;;;2.60;;
23169;SDS011;11753;43.144;24.714;2023-06-14T04:37:00;4.53;;;2.72;;
23169;SDS011;11753;43.144;24.714;2023-06-14T04:38:01;4.20;;;3.00;;
23169;SDS011;11753;43.144;24.714;2023-06-14T04:39:04;6.50;;;2.90;;
23169;SDS011;11753;43.144;24.714;2023-06-14T04:40:06;6.72;;;4.07;;
23169;SDS011;11753;43.144;24.714;2023-06-14T04:41:07;8.73;;;4.43;;
23169;SDS011;11753;43.144;24.714;2023-06-14T04:42:11;8.68;;;4.32;;
23169;SDS011;11753;43.144;24.714;2023-06-14T04:43:15;6.07;;;3.47;;
23169;SDS011;11753;43.144;24.714;2023-06-14T04:44:18;8.35;;;4.22;;
23169;SDS011;11753;43.144;24.714;2023-06-14T04:45:24;14.45;;;5.63;;
23169;SDS011;11753;43.144;24.714;2023-06-14T04:46:33;8.45;;;4.78;;
23169;SDS011;11753;43.144;24.714;2023-06-14T04:47:46;8.88;;;3.90;;
23169;SDS011;11753;43.144;24.714;2023-06-14T04:48:47;7.22;;;4.30;;
23169;SDS011;11753;43.144;24.714;2023-06-14T04:49:51;9.20;;;4.60;;
23169;SDS011;11753;43.144;24.714;2023-06-14T04:50:52;8.30;;;5.05;;
23169;SDS011;11753;43.144;24.714;2023-06-14T04:51:53;7.88;;;5.00;;
23169;SDS011;11753;43.144;24.714;2023-06-14T04:53:02;10.05;;;4.85;;
23169;SDS011;11753;43.144;24.714;2023-06-14T04:54:03;8.15;;;4.53;;
23169;SDS011;11753;43.144;24.714;2023-06-14T04:55:05;5.50;;;4.20;;
23169;SDS011;11753;43.144;24.714;2023-06-14T04:56:07;6.88;;;4.00;;
23169;SDS011;11753;43.144;24.714;2023-06-14T04:57:09;13.10;;;5.47;;
23169;SDS011;11753;43.144;24.714;2023-06-14T04:58:14;7.57;;;5.75;;
23169;SDS011;11753;43.144;24.714;2023-06-14T04:59:15;9.27;;;4.88;;
23169;SDS011;11753;43.144;24.714;2023-06-14T05:00:17;9.80;;;5.53;;
23169;SDS011;11753;43.144;24.714;2023-06-14T05:01:19;7.32;;;4.63;;
23169;SDS011;11753;43.144;24.714;2023-06-14T05:02:22;9.73;;;4.80;;
23169;SDS011;11753;43.144;24.714;2023-06-14T05:03:24;8.10;;;5.25;;
23169;SDS011;11753;43.144;24.714;2023-06-14T05:04:25;7.10;;;4.82;;
23169;SDS011;11753;43.144;24.714;2023-06-14T05:05:28;6.70;;;4.90;;
23169;SDS011;11753;43.144;24.714;2023-06-14T05:06:29;7.97;;;4.97;;
23169;SDS011;11753;43.144;24.714;2023-06-14T05:07:31;9.52;;;5.40;;
23169;SDS011;11753;43.144;24.714;2023-06-14T05:08:32;9.75;;;5.10;;
23169;SDS011;11753;43.144;24.714;2023-06-14T05:09:32;11.77;;;5.40;;
23169;SDS011;11753;43.144;24.714;2023-06-14T05:10:33;7.32;;;5.28;;
23169;SDS011;11753;43.144;24.714;2023-06-14T05:11:36;9.80;;;5.30;;
23169;SDS011;11753;43.144;24.714;2023-06-14T05:12:37;7.85;;;5.03;;
23169;SDS011;11753;43.144;24.714;2023-06-14T05:13:38;8.88;;;4.93;;
23169;SDS011;11753;43.144;24.714;2023-06-14T05:14:40;7.07;;;4.97;;
23169;SDS011;11753;43.144;24.714;2023-06-14T05:15:41;9.85;;;4.97;;
23169;SDS011;11753;43.144;24.714;2023-06-14T05:16:43;7.03;;;5.05;;
23169;SDS011;11753;43.144;24.714;2023-06-14T05:17:45;7.55;;;4.65;;
23169;SDS011;11753;43.144;24.714;2023-06-14T05:18:53;8.10;;;4.97;;
23169;SDS011;11753;43.144;24.714;2023-06-14T05:19:54;9.27;;;5.55;;
23169;SDS011;11753;43.144;24.714;2023-06-14T05:20:56;6.97;;;5.07;;
23169;SDS011;11753;43.144;24.714;2023-06-14T05:21:57;7.28;;;4.78;;
23169;SDS011;11753;43.144;24.714;2023-06-14T05:22:58;6.75;;;4.90;;
23169;SDS011;11753;43.144;24.714;2023-06-14T05:23:59;8.48;;;5.05;;
23169;SDS011;11753;43.144;24.714;2023-06-14T05:25:00;11.10;;;4.90;;
23169;SDS011;11753;43.144;24.714;2023-06-14T05:26:01;6.88;;;4.72;;
23169;SDS011;11753;43.144;24.714;2023-06-14T05:27:04;8.25;;;5.13;;
23169;SDS011;11753;43.144;24.714;2023-06-14T05:28:06;9.50;;;5.43;;
23169;SDS011;11753;43.144;24.714;2023-06-14T05:29:06;9.43;;;5.68;;
23169;SDS011;11753;43.144;24.714;2023-06-14T05:30:08;8.77;;;4.82;;
23169;SDS011;11753;43.144;24.714;2023-06-14T05:31:09;7.30;;;5.15;;
23169;SDS011;11753;43.144;24.714;2023-06-14T05:32:10;9.60;;;5.93;;
23169;SDS011;11753;43.144;24.714;2023-06-14T05:33:11;8.82;;;5.63;;
23169;SDS011;11753;43.144;24.714;2023-06-14T05:34:12;8.90;;;5.55;;
23169;SDS011;11753;43.144;24.714;2023-06-14T05:35:12;11.40;;;6.50;;
23169;SDS011;11753;43.144;24.714;2023-06-14T05:36:13;12.10;;;7.38;;
23169;SDS011;11753;43.144;24.714;2023-06-14T05:37:13;12.43;;;8.15;;
23169;SDS011;11753;43.144;24.714;2023-06-14T05:38:14;14.30;;;8.55;;
23169;SDS011;11753;43.144;24.714;2023-06-14T05:39:15;12.98;;;6.68;;
23169;SDS011;11753;43.144;24.714;2023-06-14T05:40:17;20.13;;;9.35;;
23169;SDS011;11753;43.144;24.714;2023-06-14T05:41:18;29.70;;;13.77;;
23169;SDS011;11753;43.144;24.714;2023-06-14T05:42:21;22.38;;;11.40;;
23169;SDS011;11753;43.144;24.714;2023-06-14T05:43:22;16.55;;;9.70;;
23169;SDS011;11753;43.144;24.714;2023-06-14T05:44:23;14.52;;;7.78;;
23169;SDS011;11753;43.144;24.714;2023-06-14T05:45:28;11.68;;;6.95;;
23169;SDS011;11753;43.144;24.714;2023-06-14T05:46:29;10.85;;;6.32;;
23169;SDS011;11753;43.144;24.714;2023-06-14T05:47:30;11.15;;;6.15;;
23169;SDS011;11753;43.144;24.714;2023-06-14T05:48:31;9.35;;;5.95;;
23169;SDS011;11753;43.144;24.714;2023-06-14T05:49:32;8.55;;;5.38;;
23169;SDS011;11753;43.144;24.714;2023-06-14T05:50:36;9.02;;;4.95;;
23169;SDS011;11753;43.144;24.714;2023-06-14T05:51:37;8.65;;;5.18;;
23169;SDS011;11753;43.144;24.714;2023-06-14T05:52:38;7.55;;;4.68;;
23169;SDS011;11753;43.144;24.714;2023-06-14T05:53:39;7.15;;;5.53;;
23169;SDS011;11753;43.144;24.714;2023-06-14T05:54:41;6.93;;;4.70;;
23169;SDS011;11753;43.144;24.714;2023-06-14T05:55:42;6.32;;;4.85;;
23169;SDS011;11753;43.144;24.714;2023-06-14T05:56:43;7.45;;;4.60;;
23169;SDS011;11753;43.144;24.714;2023-06-14T05:57:44;7.28;;;4.63;;
23169;SDS011;11753;43.144;24.714;2023-06-14T05:58:45;7.03;;;4.47;;
23169;SDS011;11753;43.144;24.714;2023-06-14T05:59:47;6.30;;;4.32;;
23169;SDS011;11753;43.144;24.714;2023-06-14T06:00:48;8.18;;;4.85;;
23169;SDS011;11753;43.144;24.714;2023-06-14T06:01:48;8.15;;;5.63;;
23169;SDS011;11753;43.144;24.714;2023-06-14T06:02:49;9.57;;;5.50;;
23169;SDS011;11753;43.144;24.714;2023-06-14T06:03:50;8.25;;;5.40;;
23169;SDS011;11753;43.144;24.714;2023-06-14T06:04:51;10.13;;;6.07;;
23169;SDS011;11753;43.144;24.714;2023-06-14T06:05:52;7.43;;;4.90;;
23169;SDS011;11753;43.144;24.714;2023-06-14T06:06:53;6.93;;;5.00;;
23169;SDS011;11753;43.144;24.714;2023-06-14T06:07:54;12.98;;;6.25;;
23169;SDS011;11753;43.144;24.714;2023-06-14T06:08:56;9.38;;;5.68;;
23169;SDS011;11753;43.144;24.714;2023-06-14T06:09:57;9.02;;;5.70;;
23169;SDS011;11753;43.144;24.714;2023-06-14T06:10:58;9.68;;;5.70;;
23169;SDS011;11753;43.144;24.714;2023-06-14T06:12:00;10.23;;;5.80;;
23169;SDS011;11753;43.144;24.714;2023-06-14T06:13:01;9.05;;;4.93;;